Alexandria, MO

4:47 AM CDT on September 30, 2014 (GMT -0500)
KEOIA | Change Station
CLOSE
Current Station
Personal Weather Station
Location: Keokuk, IA
Elevation: 629 ft
Nearby Weather Stations

Elev 629 ft 40.40 °N, 91.38 °W | Updated 3 seconds ago

Clear
Clear
60.6 °F
Feels Like 60.6 °F
N
0.0
Wind Variable Wind from WNW
Gusts 6.0 mph

Today
High -- | Low -- °F
--% Chance of Precip.
Yesterday
High -- | Low -- °F
Precip. -- in
7:01 AM 6:49 PM
Waxing Crescent, 35% visible
Pressure 29.97 in
Visibility 4.0 miles
Clouds Scattered Clouds 600 ft
Dew Point 58 °F
Humidity 92%
Rainfall 0.00 in
Snow Depth Not available.
UV 0 out of 12
Pollen 4.50 out of 12
Air Quality Not available.
Flu Activity Not available.
METAR KEOK 300935Z AUTO 06007KT 4SM BR SCT006 16/15 A2997 RMK AO2

More Conditions Fewer Conditions

Pressure 29.97 in
Visibility 4.0 miles
Clouds Scattered Clouds 600 ft
Dew Point 58 °F
Humidity 92%
Rainfall 0.00 in
Snow Depth Not available.
UV 0 out of 12
Pollen 4.50 out of 12
Air Quality Not available.
Flu Activity Not available.
METAR KEOK 300935Z AUTO 06007KT 4SM BR SCT006 16/15 A2997 RMK AO2

More Conditions Fewer Conditions

10-Day Weather Forecast

Almanac

Astronomy

Sep. 30, 2014 Rise Set
Actual Time 7:01 AM CDT 6:49 PM CDT
Civil Twilight 6:34 AM CDT 7:16 PM CDT
Nautical Twilight 6:02 AM CDT 7:48 PM CDT
Astronomical Twilight 5:30 AM CDT 8:20 PM CDT
Moon 1:10 PM CDT 11:19 PM CDT
Length of Visible Light 12h 42m
Length of Day
11h 48m
Tomorrow will be 2m 39s shorter.
Waxing Crescent, 35% of the Moon is Illuminated
Today
Waxing Crescent
Oct 1
First Quarter
Oct 8
Full
Oct 15
Last Quarter
Oct 23
New

Today's Extremes

State Highs State Lows

Community

WunderPhotos

Upload Photos

1,757,606 photos uploaded!

Nearby

Snow Depth

Station Depth Elevation
No new snow has been reported.

Earthquake Activity

City Distance Mag. Time & Date
No recent earthquake activity has been reported nearby.
Minimum magnitude displayed is 2.5.

Coastal Water Temperatures

Place Temperature
No Stations Reporting

Nearby Weather Stations